Time;durP1;ratioP1;P1;durP2;ratioP2;P2;SDS_P1;SDS_P2;PMS_P1;PMS_P2;Temp;Humidity;BMP_temperature;BMP_pressure;BME280_temperature;BME280_humidity;BME280_pressure;Samples;Min_cycle;Max_cycle;Signal;HPM_P1;HPM_P2
2021/03/28 00:01:01;;;;;;;27.88;3.42;;;4.40;99.90;;;;;;4994748;28;20026;-66
2021/03/28 00:03:35;;;;;;;27.52;4.88;;;4.40;99.90;;;;;;4994770;28;20093;-67
2021/03/28 00:06:15;;;;;;;22.73;3.30;;;4.40;99.90;;;;;;4994239;28;20439;-67
2021/03/28 00:08:45;;;;;;;28.25;3.30;;;4.50;99.90;;;;;;4994102;28;20038;-66
2021/03/28 00:11:21;;;;;;;21.92;3.92;;;4.50;99.90;;;;;;4995361;28;20362;-66
2021/03/28 00:13:53;;;;;;;27.33;3.83;;;4.40;99.90;;;;;;4993933;28;20073;-66
2021/03/28 00:16:23;;;;;;;24.10;4.25;;;4.40;99.90;;;;;;4995119;28;20065;-66
2021/03/28 00:19:00;;;;;;;28.73;4.53;;;4.40;99.90;;;;;;4996729;28;20050;-66
2021/03/28 00:21:32;;;;;;;22.90;5.20;;;4.40;99.90;;;;;;4996166;28;20056;-67
2021/03/28 00:24:19;;;;;;;21.25;5.20;;;4.40;99.90;;;;;;4997014;28;20036;-66
2021/03/28 00:27:02;;;;;;;22.95;4.60;;;4.50;99.90;;;;;;4997350;28;20584;-66
2021/03/28 00:29:28;;;;;;;22.63;4.45;;;4.50;99.90;;;;;;4997579;28;20021;-66
2021/03/28 00:32:09;;;;;;;17.35;3.67;;;4.50;99.90;;;;;;4996177;28;20117;-66
2021/03/28 00:34:45;;;;;;;38.22;4.68;;;4.50;99.90;;;;;;4996866;28;20044;-66
2021/03/28 00:37:10;;;;;;;32.25;3.75;;;4.50;99.90;;;;;;4996220;28;20038;-66
2021/03/28 00:39:55;;;;;;;20.65;3.92;;;4.50;99.90;;;;;;4997496;28;20096;-67
2021/03/28 00:42:41;;;;;;;36.00;3.88;;;4.60;99.90;;;;;;4997806;28;20084;-66
2021/03/28 00:45:35;;;;;;;24.63;4.30;;;4.60;99.90;;;;;;4995774;28;20181;-67
2021/03/28 00:48:11;;;;;;;27.08;4.15;;;4.60;99.90;;;;;;4997756;28;20078;-67
2021/03/28 00:50:39;;;;;;;22.92;5.03;;;4.60;99.90;;;;;;4997192;28;20320;-67
2021/03/28 00:53:08;;;;;;;23.02;3.78;;;4.60;99.90;;;;;;4995246;28;20121;-66
2021/03/28 00:55:58;;;;;;;29.77;4.07;;;4.60;99.90;;;;;;4999663;28;20037;-66
2021/03/28 00:58:56;;;;;;;33.90;4.57;;;4.50;99.90;;;;;;4993829;28;20030;-66
2021/03/28 01:01:46;;;;;;;30.40;5.78;;;4.50;99.90;;;;;;4998889;28;20551;-66
2021/03/28 01:04:39;;;;;;;26.70;4.78;;;4.50;99.90;;;;;;5001524;28;20061;-66
2021/03/28 01:07:22;;;;;;;32.92;4.28;;;4.50;99.90;;;;;;5000632;28;20548;-67
2021/03/28 01:10:16;;;;;;;34.03;4.20;;;4.50;99.90;;;;;;5001457;28;20064;-66
2021/03/28 01:12:42;;;;;;;32.65;4.78;;;4.50;99.90;;;;;;5000353;28;20735;-67
2021/03/28 01:15:53;;;;;;;53.85;6.60;;;4.50;99.90;;;;;;4999409;28;20022;-67
2021/03/28 01:18:36;;;;;;;32.47;4.82;;;4.50;99.90;;;;;;4999763;28;20138;-67
2021/03/28 01:21:20;;;;;;;28.60;4.88;;;4.50;99.90;;;;;;5000744;28;20056;-66
2021/03/28 01:24:03;;;;;;;39.25;4.78;;;4.50;99.90;;;;;;4999651;28;20099;-67
2021/03/28 01:26:53;;;;;;;33.90;4.53;;;4.50;99.90;;;;;;4999911;28;20517;-67
2021/03/28 01:29:38;;;;;;;;;;;4.50;99.90;;;;;;5001131;28;20036;-67
2021/03/28 01:32:36;;;;;;;32.03;4.60;;;4.50;99.90;;;;;;5000658;28;20309;-66
2021/03/28 01:35:11;;;;;;;25.23;4.03;;;4.50;99.90;;;;;;4999913;28;20038;-67
2021/03/28 01:38:10;;;;;;;34.78;6.03;;;4.50;99.90;;;;;;5000464;28;20041;-66
2021/03/28 01:40:42;;;;;;;32.65;5.13;;;4.50;99.90;;;;;;5000001;28;20084;-66
2021/03/28 01:43:22;;;;;;;27.73;5.47;;;4.50;99.90;;;;;;5000440;28;20080;-66
2021/03/28 01:46:12;;;;;;;39.43;6.03;;;4.60;99.90;;;;;;4999924;28;20117;-65
2021/03/28 01:49:00;;;;;;;34.88;5.50;;;4.50;99.90;;;;;;5000493;28;20921;-66
2021/03/28 01:51:26;;;;;;;41.58;5.30;;;4.50;99.90;;;;;;4999660;28;20030;-66
2021/03/28 01:54:16;;;;;;;36.97;6.20;;;4.50;99.90;;;;;;4999151;28;20077;-66
2021/03/28 01:57:05;;;;;;;32.90;5.28;;;4.50;99.90;;;;;;5000306;28;20030;-66
2021/03/28 01:59:40;;;;;;;35.25;6.43;;;4.50;99.90;;;;;;4998074;28;20458;-66
2021/03/28 02:02:26;;;;;;;42.15;6.18;;;4.50;99.90;;;;;;4997566;28;20568;-67
2021/03/28 02:05:28;;;;;;;32.50;5.47;;;4.50;99.90;;;;;;5000098;28;20393;-66
2021/03/28 02:08:21;;;;;;;30.38;5.97;;;4.50;99.90;;;;;;4999442;28;20026;-66
2021/03/28 02:11:03;;;;;;;41.70;6.63;;;4.50;99.90;;;;;;4999246;28;20096;-66
2021/03/28 02:13:37;;;;;;;36.88;5.18;;;4.50;99.90;;;;;;4999175;28;20315;-67
2021/03/28 02:16:29;;;;;;;39.33;7.13;;;4.50;99.90;;;;;;5000103;28;20542;-67
2021/03/28 02:19:03;;;;;;;43.67;6.03;;;4.50;99.90;;;;;;4999543;28;20363;-66
2021/03/28 02:22:06;;;;;;;50.45;8.32;;;4.60;99.90;;;;;;4998440;28;20057;-67
2021/03/28 02:24:38;;;;;;;45.67;7.05;;;4.60;99.90;;;;;;4999104;28;20100;-67
2021/03/28 02:27:44;;;;;;;48.58;8.35;;;4.60;99.90;;;;;;4998273;28;20145;-67
2021/03/28 02:30:22;;;;;;;44.53;7.43;;;4.60;99.90;;;;;;4999819;28;20034;-67
2021/03/28 02:33:09;;;;;;;46.35;7.63;;;4.70;99.90;;;;;;4998952;28;20159;-67
2021/03/28 02:35:43;;;;;;;37.90;5.85;;;4.70;99.90;;;;;;4998698;28;20564;-66
2021/03/28 02:38:40;;;;;;;37.42;5.30;;;4.70;99.90;;;;;;4997730;28;20473;-66
2021/03/28 02:41:35;;;;;;;36.97;7.18;;;4.80;99.90;;;;;;4998881;28;20147;-66
2021/03/28 02:44:35;;;;;;;43.03;7.20;;;4.90;99.90;;;;;;4998815;28;20175;-66
2021/03/28 02:47:04;;;;;;;57.53;8.02;;;4.90;99.90;;;;;;4996295;28;20521;-66
2021/03/28 02:50:01;;;;;;;28.13;5.20;;;4.90;99.90;;;;;;4998272;28;20026;-66
2021/03/28 02:52:55;;;;;;;46.85;8.50;;;5.00;99.90;;;;;;4997731;28;20481;-67
2021/03/28 02:56:06;;;;;;;48.00;7.88;;;5.00;99.90;;;;;;4999456;28;20044;-67
2021/03/28 02:58:53;;;;;;;39.75;6.55;;;5.10;99.90;;;;;;4997626;28;20137;-66
2021/03/28 03:01:56;;;;;;;34.30;5.22;;;5.10;99.90;;;;;;4997875;28;20046;-66
2021/03/28 03:04:45;;;;;;;36.28;7.00;;;5.20;99.90;;;;;;4996893;28;20045;-66
2021/03/28 03:07:39;;;;;;;36.00;6.55;;;5.20;99.90;;;;;;4999682;28;20038;-67
2021/03/28 03:10:47;;;;;;;32.38;7.95;;;5.20;99.90;;;;;;4998572;28;20316;-66
2021/03/28 03:13:27;;;;;;;35.20;6.22;;;5.30;99.90;;;;;;4996234;28;20497;-67
2021/03/28 03:16:13;;;;;;;37.83;6.70;;;5.30;99.90;;;;;;4998122;28;20036;-67
2021/03/28 03:19:20;;;;;;;28.48;6.75;;;5.30;99.90;;;;;;4997979;28;20054;-66
2021/03/28 03:22:11;;;;;;;32.15;6.00;;;5.30;99.90;;;;;;4998154;28;20115;-67
2021/03/28 03:25:02;;;;;;;38.38;6.97;;;5.30;99.90;;;;;;4999102;28;20081;-67
2021/03/28 03:27:56;;;;;;;40.75;6.45;;;5.40;99.90;;;;;;4999351;28;20139;-66
2021/03/28 03:30:46;;;;;;;26.23;6.35;;;5.40;99.90;;;;;;4997885;28;20041;-69
2021/03/28 03:33:17;;;;;;;42.92;6.43;;;5.40;99.90;;;;;;4998084;28;20552;-66
2021/03/28 03:36:19;;;;;;;34.40;6.00;;;5.30;99.90;;;;;;4997301;28;20045;-66
2021/03/28 03:39:17;;;;;;;41.15;6.30;;;5.30;99.90;;;;;;4999942;28;20046;-67
2021/03/28 03:42:10;;;;;;;34.42;7.10;;;5.30;99.90;;;;;;4998219;28;20042;-66
2021/03/28 03:45:04;;;;;;;30.90;6.03;;;5.30;99.90;;;;;;4997580;28;20500;-66
2021/03/28 03:47:43;;;;;;;31.17;6.22;;;5.20;99.90;;;;;;4997233;28;20038;-66
2021/03/28 03:50:20;;;;;;;29.83;5.30;;;5.30;99.90;;;;;;4998685;28;20034;-66
2021/03/28 03:53:02;;;;;;;31.90;5.10;;;5.30;99.90;;;;;;4994694;28;20037;-66
2021/03/28 03:55:52;;;;;;;34.20;5.88;;;5.30;99.90;;;;;;4996928;28;20044;-66
2021/03/28 03:58:27;;;;;;;36.85;7.32;;;5.30;99.90;;;;;;4997430;28;20033;-65
2021/03/28 04:01:32;;;;;;;39.17;6.85;;;5.30;99.90;;;;;;4990707;28;20034;-67
2021/03/28 04:04:23;;;;;;;39.08;5.85;;;5.30;99.90;;;;;;5001659;28;20049;-66
2021/03/28 04:07:13;;;;;;;36.88;7.03;;;5.30;99.90;;;;;;4997439;28;20751;-66
2021/03/28 04:09:55;;;;;;;;;;;5.30;99.90;;;;;;4998043;28;20091;-66
2021/03/28 04:12:42;;;;;;;39.55;7.57;;;5.30;99.90;;;;;;4997851;28;19913;-66
2021/03/28 04:15:14;;;;;;;43.40;5.95;;;5.30;99.90;;;;;;4998085;28;20034;-67
2021/03/28 04:18:17;;;;;;;28.33;5.40;;;5.30;99.90;;;;;;4998199;28;20306;-66
2021/03/28 04:21:02;;;;;;;41.17;6.00;;;5.30;99.90;;;;;;4996510;28;20229;-66
2021/03/28 04:23:51;;;;;;;37.85;7.72;;;5.30;99.90;;;;;;4997508;28;20080;-66
2021/03/28 04:26:29;;;;;;;30.20;5.93;;;5.30;99.90;;;;;;4997810;28;20385;-67
2021/03/28 04:29:09;;;;;;;31.60;5.13;;;5.40;99.90;;;;;;4998828;28;20040;-66
2021/03/28 04:31:57;;;;;;;20.92;4.28;;;5.40;99.90;;;;;;5001774;28;20113;-67
2021/03/28 04:34:35;;;;;;;32.38;5.97;;;5.40;99.90;;;;;;5000881;28;20037;-66
2021/03/28 04:37:20;;;;;;;25.23;5.00;;;5.40;99.90;;;;;;5000448;28;20022;-66
2021/03/28 04:40:24;;;;;;;35.47;5.30;;;5.40;99.90;;;;;;4999926;28;20419;-66
2021/03/28 04:43:32;;;;;;;32.83;7.03;;;5.40;99.90;;;;;;5000164;28;20076;-66
2021/03/28 04:46:35;;;;;;;27.15;5.47;;;5.40;99.90;;;;;;5000710;28;20048;-67
2021/03/28 04:49:30;;;;;;;24.73;4.47;;;5.30;99.90;;;;;;4999276;28;20038;-67
2021/03/28 04:52:30;;;;;;;29.63;6.90;;;5.40;99.90;;;;;;5001830;28;20107;-66
2021/03/28 04:55:33;;;;;;;20.20;3.80;;;5.40;99.90;;;;;;5000094;28;20026;-66
2021/03/28 04:58:20;;;;;;;35.83;6.40;;;5.30;99.90;;;;;;4999084;28;20061;-66
2021/03/28 05:01:34;;;;;;;31.40;5.30;;;5.30;99.90;;;;;;4998442;28;20049;-66
2021/03/28 05:04:31;;;;;;;26.08;6.18;;;5.30;99.90;;;;;;5000776;28;20464;-65
2021/03/28 05:07:15;;;;;;;38.67;7.10;;;5.30;99.90;;;;;;5000135;28;20022;-67
2021/03/28 05:09:53;;;;;;;30.33;5.50;;;5.30;99.90;;;;;;5001534;28;20204;-66
2021/03/28 05:12:43;;;;;;;30.60;6.10;;;5.40;99.90;;;;;;5000724;28;20580;-66
2021/03/28 05:15:33;;;;;;;31.60;4.95;;;5.40;99.90;;;;;;5001906;28;20036;-66
2021/03/28 05:18:29;;;;;;;29.20;6.00;;;5.40;99.90;;;;;;5000247;28;20060;-66
2021/03/28 05:21:01;;;;;;;28.70;5.50;;;5.40;99.90;;;;;;4999939;28;20045;-66
2021/03/28 05:23:43;;;;;;;34.13;6.28;;;5.40;99.90;;;;;;4999618;28;20048;-66
2021/03/28 05:26:35;;;;;;;29.80;5.10;;;5.40;99.90;;;;;;5000703;28;20217;-66
2021/03/28 05:29:16;;;;;;;45.28;6.85;;;5.40;99.90;;;;;;5000514;28;20037;-67
2021/03/28 05:32:20;;;;;;;25.85;5.68;;;5.40;99.90;;;;;;4999325;28;20451;-66
2021/03/28 05:35:00;;;;;;;34.65;7.03;;;5.50;99.90;;;;;;4998414;28;20469;-66
2021/03/28 05:37:32;;;;;;;38.42;6.28;;;5.50;99.90;;;;;;5000618;28;20034;-66
2021/03/28 05:40:19;;;;;;;29.60;5.20;;;5.50;99.90;;;;;;4999890;28;20033;-66
2021/03/28 05:43:15;;;;;;;31.98;5.28;;;5.50;99.90;;;;;;4998317;28;20049;-66
2021/03/28 05:46:05;;;;;;;38.03;6.65;;;5.50;99.90;;;;;;4997125;28;20042;-66
2021/03/28 05:48:57;;;;;;;31.65;6.85;;;5.50;99.90;;;;;;4999078;28;20095;-65
2021/03/28 05:51:41;;;;;;;33.00;5.93;;;5.60;99.90;;;;;;4998181;28;20038;-66
2021/03/28 05:54:29;;;;;;;39.80;6.53;;;5.70;99.90;;;;;;4998010;28;20533;-66
2021/03/28 05:57:38;;;;;;;31.67;6.00;;;5.70;99.90;;;;;;4996271;28;20037;-66
2021/03/28 06:00:48;;;;;;;40.90;6.35;;;5.80;99.90;;;;;;4999831;28;20156;-67
2021/03/28 06:03:48;;;;;;;30.52;5.22;;;5.80;99.90;;;;;;4997945;28;20050;-66
2021/03/28 06:06:52;;;;;;;37.70;5.93;;;5.90;99.90;;;;;;4998279;28;20146;-66
2021/03/28 06:10:03;;;;;;;33.97;7.65;;;5.90;99.90;;;;;;4999625;28;20034;-67
2021/03/28 06:12:41;;;;;;;29.40;5.60;;;6.00;99.90;;;;;;4998472;28;20535;-66
2021/03/28 06:15:09;;;;;;;26.90;5.22;;;5.80;99.90;;;;;;4992443;28;20048;-65
2021/03/28 06:17:53;;;;;;;35.80;6.07;;;6.10;99.90;;;;;;4995600;28;20022;-67
2021/03/28 06:20:22;;;;;;;30.83;7.47;;;6.10;99.90;;;;;;4998308;28;20187;-66
2021/03/28 06:23:03;;;;;;;36.55;5.65;;;6.10;99.90;;;;;;4998239;28;20050;-66
2021/03/28 06:25:57;;;;;;;36.95;5.72;;;6.20;99.90;;;;;;4998281;28;20482;-66
2021/03/28 06:28:26;;;;;;;41.90;6.78;;;6.20;99.90;;;;;;4999370;28;20046;-67
2021/03/28 06:31:10;;;;;;;45.05;9.07;;;6.20;99.90;;;;;;4998785;28;20034;-66
2021/03/28 06:33:48;;;;;;;41.25;6.95;;;6.30;99.90;;;;;;4997986;28;20144;-66
2021/03/28 06:36:38;;;;;;;35.10;6.15;;;6.30;99.90;;;;;;4996123;28;20103;-66
2021/03/28 06:39:03;;;;;;;;;;;6.30;99.90;;;;;;4999652;28;20199;-66
2021/03/28 06:41:51;;;;;;;30.58;5.43;;;6.30;99.90;;;;;;4998360;28;20368;-67
2021/03/28 06:44:35;;;;;;;39.45;6.47;;;6.40;99.90;;;;;;4998617;28;20464;-66
2021/03/28 06:47:29;;;;;;;29.25;6.38;;;6.40;99.90;;;;;;4996406;28;20033;-67
2021/03/28 06:50:20;;;;;;;39.42;5.60;;;6.50;99.90;;;;;;4999128;28;20378;-66
2021/03/28 06:53:29;;;;;;;44.28;7.28;;;6.50;99.90;;;;;;4996803;28;20105;-66
2021/03/28 06:56:24;;;;;;;41.15;7.68;;;6.60;99.90;;;;;;4997967;28;20026;-66
2021/03/28 06:59:24;;;;;;;44.60;7.68;;;6.70;99.90;;;;;;4998432;28;20031;-66
2021/03/28 07:02:11;;;;;;;34.10;7.80;;;6.70;99.90;;;;;;4997558;28;20037;-67
2021/03/28 07:04:58;;;;;;;50.22;6.90;;;6.80;99.90;;;;;;4998667;28;20041;-67
2021/03/28 07:07:36;;;;;;;50.13;7.05;;;6.90;99.90;;;;;;4996118;28;20064;-66
2021/03/28 07:10:25;;;;;;;33.22;7.50;;;6.90;99.90;;;;;;4993357;28;20359;-66
2021/03/28 07:13:28;;;;;;;33.05;6.85;;;7.00;99.90;;;;;;4997847;28;20481;-66
2021/03/28 07:16:51;;;;;;;45.10;8.70;;;7.00;99.90;;;;;;4998056;28;20029;-66
2021/03/28 07:20:04;;;;;;;35.53;6.97;;;7.10;99.90;;;;;;5021695;28;20401;-65
2021/03/28 07:23:01;;;;;;;46.25;7.95;;;7.20;99.90;;;;;;5021971;28;20564;-66
2021/03/28 07:25:41;;;;;;;36.78;8.05;;;7.30;99.90;;;;;;4992201;28;20042;-66
2021/03/28 07:28:44;;;;;;;39.90;7.72;;;7.30;99.90;;;;;;4996025;28;20026;-66
2021/03/28 07:31:27;;;;;;;44.95;8.75;;;7.40;99.90;;;;;;4994648;28;20393;-66
2021/03/28 07:34:07;;;;;;;45.00;8.13;;;7.40;99.90;;;;;;4995001;28;20037;-67
2021/03/28 07:36:55;;;;;;;50.63;8.90;;;7.40;99.90;;;;;;4991496;28;20177;-66
2021/03/28 07:39:40;;;;;;;44.33;9.45;;;7.40;99.90;;;;;;4991024;28;20057;-66
2021/03/28 07:42:29;;;;;;;40.17;8.60;;;7.40;99.90;;;;;;4993425;28;20096;-66
2021/03/28 07:45:40;;;;;;;48.05;8.50;;;7.50;99.90;;;;;;4993195;28;20521;-66
2021/03/28 07:48:44;;;;;;;47.67;8.45;;;7.50;99.90;;;;;;4993413;28;20037;-66
2021/03/28 07:51:34;;;;;;;38.05;8.40;;;7.50;99.90;;;;;;4993002;28;20218;-67
2021/03/28 07:54:25;;;;;;;47.65;10.05;;;7.40;99.90;;;;;;4994901;28;20478;-66
2021/03/28 07:57:26;;;;;;;42.90;8.02;;;7.50;99.90;;;;;;4995276;28;20160;-66
2021/03/28 08:00:16;;;;;;;50.22;10.27;;;7.60;99.90;;;;;;4993018;28;20044;-66
2021/03/28 08:02:56;;;;;;;52.30;10.70;;;7.60;99.90;;;;;;4994698;28;20057;-67
2021/03/28 08:05:49;;;;;;;45.80;10.38;;;7.60;99.90;;;;;;4994346;28;20045;-68
2021/03/28 08:08:34;;;;;;;45.15;8.25;;;7.70;99.90;;;;;;4998929;28;20052;-68
2021/03/28 08:11:23;;;;;;;53.08;9.07;;;7.70;99.90;;;;;;4999634;28;20405;-68
2021/03/28 08:14:31;;;;;;;38.77;9.33;;;7.80;99.90;;;;;;4999369;28;20037;-68
2021/03/28 08:17:20;;;;;;;36.53;7.97;;;7.80;99.90;;;;;;4996734;28;20458;-68
2021/03/28 08:20:03;;;;;;;47.10;8.80;;;7.80;99.90;;;;;;4998699;28;20076;-67
2021/03/28 08:23:04;;;;;;;47.25;8.75;;;7.80;99.90;;;;;;4995681;28;20107;-67
2021/03/28 08:25:56;;;;;;;45.67;9.70;;;7.80;99.90;;;;;;4997447;28;20053;-68
2021/03/28 08:28:30;;;;;;;45.75;8.25;;;7.90;99.90;;;;;;4996176;28;20835;-67
2021/03/28 08:31:33;;;;;;;40.50;9.30;;;7.90;99.90;;;;;;4997149;28;20030;-66
2021/03/28 08:34:27;;;;;;;38.90;8.13;;;7.90;99.90;;;;;;4993637;28;20038;-67
2021/03/28 08:37:12;;;;;;;47.50;7.68;;;7.90;99.90;;;;;;4998986;28;20061;-68
2021/03/28 08:39:57;;;;;;;55.97;10.68;;;7.90;99.90;;;;;;4997012;28;20053;-67
2021/03/28 08:42:44;;;;;;;46.17;9.65;;;7.90;99.90;;;;;;4995151;28;20053;-67
2021/03/28 08:45:25;;;;;;;57.50;9.73;;;7.90;99.90;;;;;;4998903;28;20041;-67
2021/03/28 08:48:22;;;;;;;56.35;10.63;;;7.90;99.90;;;;;;4998225;28;20572;-67
2021/03/28 08:50:59;;;;;;;43.85;9.20;;;7.90;99.90;;;;;;4994949;28;20026;-67
2021/03/28 08:53:43;;;;;;;48.05;9.45;;;7.90;99.90;;;;;;4997372;28;20032;-67
2021/03/28 08:56:35;;;;;;;46.65;10.50;;;7.90;99.90;;;;;;4998484;28;20056;-67
2021/03/28 08:59:19;;;;;;;56.65;10.43;;;7.90;99.90;;;;;;4996815;28;20037;-67
2021/03/28 09:02:06;;;;;;;54.63;10.15;;;7.90;99.90;;;;;;4997898;28;20041;-67
2021/03/28 09:04:38;;;;;;;69.78;11.13;;;7.90;99.90;;;;;;4998407;28;20059;-67
2021/03/28 09:07:19;;;;;;;53.50;8.52;;;8.00;99.90;;;;;;4991756;28;20030;-67
2021/03/28 09:10:23;;;;;;;35.22;8.38;;;8.00;99.90;;;;;;4997156;28;20061;-67
2021/03/28 09:13:28;;;;;;;45.38;9.02;;;8.00;99.90;;;;;;4998108;28;20478;-67
2021/03/28 09:16:09;;;;;;;37.10;8.40;;;8.00;99.90;;;;;;4999643;28;20025;-67
2021/03/28 09:18:50;;;;;;;51.33;10.65;;;8.00;99.90;;;;;;5001599;28;20049;-66
2021/03/28 09:21:28;;;;;;;45.13;8.50;;;8.00;99.90;;;;;;5002099;28;20088;-67
2021/03/28 09:24:33;;;;;;;37.25;8.57;;;8.10;99.90;;;;;;5000621;28;20121;-67
2021/03/28 09:27:05;;;;;;;44.22;9.48;;;8.20;99.90;;;;;;5000957;28;20062;-67
2021/03/28 09:30:09;;;;;;;43.22;7.53;;;8.30;99.90;;;;;;4999344;28;20467;-66
2021/03/28 09:32:38;;;;;;;46.10;11.40;;;8.30;99.90;;;;;;5000880;28;20387;-67
2021/03/28 09:35:35;;;;;;;39.83;7.85;;;8.30;99.90;;;;;;5000277;28;20045;-67
2021/03/28 09:38:27;;;;;;;46.70;8.73;;;8.30;99.90;;;;;;5001801;28;20037;-66
2021/03/28 09:41:32;;;;;;;47.33;8.85;;;8.30;99.90;;;;;;5000576;28;20038;-67
2021/03/28 09:44:17;;;;;;;42.08;8.18;;;8.30;99.90;;;;;;4997648;28;20036;-67
2021/03/28 09:47:05;;;;;;;35.28;7.90;;;8.20;99.90;;;;;;4997013;28;20501;-67
2021/03/28 09:49:52;;;;;;;37.42;8.75;;;8.20;99.90;;;;;;4996131;28;20045;-67
2021/03/28 09:52:33;;;;;;;38.97;8.00;;;8.10;99.90;;;;;;4996149;28;20041;-66
2021/03/28 09:55:14;;;;;;;45.55;8.15;;;8.10;99.90;;;;;;4998138;28;20026;-67
2021/03/28 09:58:17;;;;;;;45.70;8.63;;;8.00;99.90;;;;;;5000014;28;20765;-67
2021/03/28 10:01:30;;;;;;;45.65;9.55;;;7.90;99.90;;;;;;4992742;28;20389;-66
2021/03/28 10:04:26;;;;;;;42.45;8.27;;;7.90;99.90;;;;;;5008489;28;20053;-67
2021/03/28 10:07:01;;;;;;;42.67;9.63;;;7.90;99.90;;;;;;4990555;28;20022;-67
2021/03/28 10:10:07;;;;;;;43.05;9.75;;;7.80;99.90;;;;;;4991266;28;20041;-67
2021/03/28 10:12:45;;;;;;;45.13;10.48;;;7.80;99.90;;;;;;4989017;28;20057;-67
2021/03/28 10:15:29;;;;;;;54.78;11.98;;;7.80;99.90;;;;;;4989106;28;20164;-67
2021/03/28 10:18:07;;;;;;;54.15;10.43;;;7.70;99.90;;;;;;4990196;28;20582;-66
2021/03/28 10:20:34;;;;;;;45.22;10.70;;;7.70;99.90;;;;;;4987790;28;21937;-67
2021/03/28 10:23:06;;;;;;;47.25;9.35;;;7.70;99.90;;;;;;4990172;28;20049;-67
2021/03/28 10:25:38;;;;;;;41.65;8.75;;;7.70;99.90;;;;;;5000167;28;20051;-67
2021/03/28 10:28:12;;;;;;;41.20;8.95;;;7.60;99.90;;;;;;4997489;28;20045;-66
2021/03/28 10:30:57;;;;;;;51.58;8.95;;;7.50;99.90;;;;;;4992132;28;20026;-65
2021/03/28 10:33:50;;;;;;;39.35;8.75;;;7.50;99.90;;;;;;4998103;28;20616;-65
2021/03/28 10:36:50;;;;;;;36.47;8.70;;;7.50;99.90;;;;;;4999856;28;20501;-66
2021/03/28 10:39:34;;;;;;;38.92;8.02;;;7.50;99.90;;;;;;4999600;28;20379;-66
2021/03/28 10:42:31;;;;;;;34.53;7.97;;;7.50;99.90;;;;;;5000080;28;20103;-67
2021/03/28 10:45:20;;;;;;;34.90;7.40;;;7.60;99.90;;;;;;4993180;28;20064;-66
2021/03/28 10:48:23;;;;;;;34.67;7.38;;;7.60;99.90;;;;;;4996240;28;20053;-66
2021/03/28 10:51:27;;;;;;;36.85;7.30;;;7.60;99.90;;;;;;4998875;28;20044;-67
2021/03/28 10:53:55;;;;;;;27.65;6.05;;;7.70;99.90;;;;;;4991800;28;20117;-67
2021/03/28 10:56:40;;;;;;;35.38;7.03;;;7.70;99.90;;;;;;4988487;28;20025;-67
2021/03/28 10:59:45;;;;;;;28.92;6.95;;;7.70;99.90;;;;;;4989218;28;20029;-66
2021/03/28 11:02:58;;;;;;;25.23;6.07;;;7.70;99.90;;;;;;4996346;28;20395;-66
2021/03/28 11:05:53;;;;;;;28.00;6.75;;;7.70;99.90;;;;;;4990204;28;20034;-69
2021/03/28 11:08:38;;;;;;;27.88;6.65;;;7.60;99.90;;;;;;4988903;28;20607;-68
2021/03/28 11:11:41;;;;;;;31.33;6.68;;;7.60;99.90;;;;;;4991823;28;20040;-69
2021/03/28 11:14:26;;;;;;;39.47;8.57;;;7.60;99.90;;;;;;4992985;28;20029;-69
2021/03/28 11:17:01;;;;;;;34.40;6.63;;;7.60;99.90;;;;;;4998949;28;20091;-69
2021/03/28 11:19:49;;;;;;;28.63;6.63;;;7.60;99.90;;;;;;4998783;28;20056;-69
2021/03/28 11:22:49;;;;;;;27.92;7.20;;;7.60;99.90;;;;;;4999349;28;20042;-69
2021/03/28 11:25:28;;;;;;;34.35;7.00;;;7.60;99.90;;;;;;4998100;28;20026;-69
2021/03/28 11:27:54;;;;;;;29.77;5.40;;;7.50;99.90;;;;;;4997534;28;20064;-69
2021/03/28 11:31:08;;;;;;;28.85;5.82;;;7.50;99.90;;;;;;4998790;28;20117;-69
2021/03/28 11:34:14;;;;;;;25.52;5.60;;;7.50;99.90;;;;;;5000112;28;20512;-69
2021/03/28 11:36:59;;;;;;;32.92;6.82;;;7.50;99.90;;;;;;4997889;28;20049;-69
2021/03/28 11:39:28;;;;;;;23.77;5.38;;;7.50;99.90;;;;;;4997847;28;20045;-69
2021/03/28 11:42:18;;;;;;;34.85;6.10;;;7.50;99.90;;;;;;4999049;28;20034;-69
2021/03/28 11:45:00;;;;;;;29.45;6.63;;;7.50;99.90;;;;;;4997819;28;20792;-69
2021/03/28 11:47:32;;;;;;;21.90;4.93;;;7.60;99.90;;;;;;4997954;28;20071;-69
2021/03/28 11:50:07;;;;;;;27.80;5.63;;;7.50;99.90;;;;;;4999858;28;20033;-69
2021/03/28 11:52:52;;;;;;;20.90;4.15;;;7.50;99.90;;;;;;4999152;28;20142;-69
2021/03/28 11:55:22;;;;;;;28.38;5.80;;;7.60;99.90;;;;;;5013988;28;20785;-68
2021/03/28 11:58:09;;;;;;;22.02;4.18;;;7.50;99.90;;;;;;4999408;28;20022;-69
2021/03/28 12:00:41;;;;;;;15.27;4.53;;;7.50;99.90;;;;;;4989637;28;20030;-67
2021/03/28 12:03:33;;;;;;;19.88;5.68;;;7.60;99.90;;;;;;4995604;28;20429;-68
2021/03/28 12:06:25;;;;;;;19.10;3.72;;;7.60;99.90;;;;;;4985282;28;20041;-67
2021/03/28 12:08:50;;;;;;;19.02;3.92;;;7.50;99.90;;;;;;4989064;28;20139;-68
2021/03/28 12:11:37;;;;;;;22.10;4.65;;;7.50;99.90;;;;;;4986941;28;20577;-68
2021/03/28 12:14:12;;;;;;;21.35;4.88;;;7.60;99.90;;;;;;4985407;28;20034;-68
2021/03/28 12:17:09;;;;;;;16.23;3.97;;;7.60;99.90;;;;;;4986789;28;20034;-70
2021/03/28 12:19:58;;;;;;;11.50;4.35;;;7.70;99.90;;;;;;4987047;28;20054;-69
2021/03/28 12:22:38;;;;;;;14.48;4.70;;;7.70;99.90;;;;;;4988696;28;20038;-69
2021/03/28 12:25:13;;;;;;;20.55;4.38;;;7.60;99.90;;;;;;4989550;28;20033;-69
2021/03/28 12:27:49;;;;;;;18.45;4.82;;;7.60;99.90;;;;;;4988285;28;20029;-70
2021/03/28 12:30:27;;;;;;;22.95;5.20;;;7.60;99.90;;;;;;4986826;28;20026;-69
2021/03/28 12:33:15;;;;;;;25.00;4.93;;;7.70;99.90;;;;;;4991149;28;20036;-69
2021/03/28 12:35:46;;;;;;;18.60;4.22;;;7.70;99.90;;;;;;4988810;28;20022;-70
2021/03/28 12:38:28;;;;;;;25.00;5.00;;;7.70;99.90;;;;;;4992103;28;20108;-70
2021/03/28 12:41:12;;;;;;;27.60;4.90;;;7.70;99.90;;;;;;4990118;28;20049;-70
2021/03/28 12:43:46;;;;;;;22.02;4.75;;;7.70;99.90;;;;;;4990936;28;20506;-69
2021/03/28 12:46:27;;;;;;;22.48;6.38;;;7.70;99.90;;;;;;4995268;28;20030;-69
2021/03/28 12:49:15;;;;;;;21.15;5.18;;;7.70;99.90;;;;;;4997825;28;20117;-69
2021/03/28 12:51:44;;;;;;;25.60;5.20;;;7.80;99.90;;;;;;5002965;28;20781;-69
2021/03/28 12:54:33;;;;;;;38.47;6.50;;;7.80;99.90;;;;;;5003722;28;20022;-69
2021/03/28 12:57:05;;;;;;;29.13;5.78;;;7.80;99.90;;;;;;5001276;28;20044;-70
2021/03/28 12:59:39;;;;;;;32.92;6.07;;;7.80;99.90;;;;;;4996680;28;20030;-69
2021/03/28 13:02:23;;;;;;;20.60;5.13;;;7.80;99.90;;;;;;4995269;28;20134;-70
2021/03/28 13:04:58;;;;;;;30.50;7.18;;;7.80;99.90;;;;;;4989613;28;20851;-69
2021/03/28 13:07:52;;;;;;;22.30;5.35;;;7.70;99.90;;;;;;4992026;28;20087;-70
2021/03/28 13:10:26;;;;;;;37.20;7.38;;;7.80;99.90;;;;;;4992658;28;20046;-70
2021/03/28 13:13:05;;;;;;;35.17;6.78;;;7.70;99.90;;;;;;4987438;28;20033;-69
2021/03/28 13:15:45;;;;;;;28.75;6.03;;;7.70;99.90;;;;;;4990999;28;20025;-69
2021/03/28 13:18:30;;;;;;;31.10;6.78;;;7.70;99.90;;;;;;4991605;28;20092;-69
2021/03/28 13:21:08;;;;;;;41.33;7.68;;;7.70;99.90;;;;;;4988572;28;21953;-70
2021/03/28 13:23:50;;;;;;;47.10;8.95;;;7.70;99.90;;;;;;4991511;28;20321;-70
2021/03/28 13:26:21;;;;;;;47.38;8.07;;;7.80;99.90;;;;;;4990876;28;20791;-69
2021/03/28 13:29:13;;;;;;;42.10;8.75;;;7.80;99.90;;;;;;4987830;28;20119;-69
2021/03/28 13:31:54;;;;;;;42.80;7.63;;;7.80;99.90;;;;;;4992483;28;20038;-69
2021/03/28 13:34:32;;;;;;;41.17;8.18;;;7.70;99.90;;;;;;4994029;28;20036;-69
2021/03/28 13:37:32;;;;;;;45.05;7.80;;;7.70;99.90;;;;;;4991753;28;20101;-69
2021/03/28 13:40:16;;;;;;;49.83;9.65;;;7.70;99.90;;;;;;4989614;28;20528;-69
2021/03/28 13:42:43;;;;;;;50.30;9.68;;;7.70;99.90;;;;;;4989897;28;20691;-69
2021/03/28 13:45:39;;;;;;;55.75;8.18;;;7.70;99.90;;;;;;4991442;28;20076;-69
2021/03/28 13:48:08;;;;;;;49.58;9.85;;;7.70;99.90;;;;;;4992524;28;20861;-69
2021/03/28 13:50:46;;;;;;;49.00;9.32;;;7.70;99.90;;;;;;4987983;28;20092;-69
2021/03/28 13:53:20;;;;;;;52.35;9.95;;;7.70;99.90;;;;;;4994242;28;20100;-69
2021/03/28 13:55:57;;;;;;;47.30;10.00;;;7.60;99.90;;;;;;4995671;28;20385;-70
2021/03/28 13:58:33;;;;;;;48.25;9.48;;;7.60;99.90;;;;;;4991240;28;20448;-69
2021/03/28 14:01:26;;;;;;;56.35;10.18;;;7.50;99.90;;;;;;4990798;28;20025;-69
2021/03/28 14:04:15;;;;;;;36.78;7.80;;;7.60;99.90;;;;;;4991062;28;20787;-70
2021/03/28 14:06:42;;;;;;;46.08;7.70;;;7.60;99.90;;;;;;4993164;28;20034;-69
2021/03/28 14:09:12;;;;;;;45.63;8.63;;;7.60;99.90;;;;;;4993166;28;20475;-69
2021/03/28 14:11:55;;;;;;;54.05;10.55;;;7.60;99.90;;;;;;4995056;28;20823;-69
2021/03/28 14:14:37;;;;;;;44.67;8.15;;;7.60;99.90;;;;;;4988522;28;20034;-69
2021/03/28 14:17:21;;;;;;;46.70;9.65;;;7.60;99.90;;;;;;4993093;28;20033;-69
2021/03/28 14:19:49;;;;;;;34.75;7.53;;;7.50;99.90;;;;;;4990962;28;20072;-69
2021/03/28 14:22:40;;;;;;;47.05;9.38;;;7.50;99.90;;;;;;4990009;28;20560;-69
2021/03/28 14:25:25;;;;;;;38.15;7.30;;;7.50;99.90;;;;;;4994336;28;20052;-69
2021/03/28 14:27:51;;;;;;;52.17;9.88;;;7.50;99.90;;;;;;4990975;28;20097;-69